Time;durP1;ratioP1;P1;durP2;ratioP2;P2;SDS_P1;SDS_P2;PMS_P1;PMS_P2;Temp;Humidity;BMP_temperature;BMP_pressure;BME280_temperature;BME280_humidity;BME280_pressure;Samples;Min_cycle;Max_cycle;Signal;HPM_P1;HPM_P2
2022/12/27 00:00:13;;;;;;;3.88;0.73;;;2.50;99.90;;;;;;4988549;28;20486;-60
2022/12/27 00:02:43;;;;;;;7.30;0.75;;;2.60;99.90;;;;;;4988316;28;20114;-59
2022/12/27 00:05:14;;;;;;;6.53;0.63;;;2.50;99.90;;;;;;5001517;28;20524;-60
2022/12/27 00:07:42;;;;;;;0.32;0.20;;;2.60;99.90;;;;;;4986448;28;20079;-60
2022/12/27 00:10:13;;;;;;;3.03;0.90;;;2.60;99.90;;;;;;4988062;28;20050;-59
2022/12/27 00:12:46;;;;;;;1.05;0.40;;;2.60;99.90;;;;;;5003766;28;20490;-60
2022/12/27 00:15:13;;;;;;;6.30;0.80;;;2.60;99.90;;;;;;4993250;28;20054;-59
2022/12/27 00:17:44;;;;;;;6.85;0.50;;;2.50;99.90;;;;;;4988245;28;20042;-58
2022/12/27 00:20:12;;;;;;;7.30;0.77;;;2.50;99.90;;;;;;4987528;28;20046;-59
2022/12/27 00:22:40;;;;;;;2.65;0.60;;;2.60;99.90;;;;;;4986846;28;20050;-59
2022/12/27 00:25:10;;;;;;;3.85;0.75;;;2.60;99.90;;;;;;4985052;28;20050;-58
2022/12/27 00:27:41;;;;;;;1.73;0.40;;;2.60;99.90;;;;;;5019015;28;20038;-60
2022/12/27 00:30:09;;;;;;;0.98;0.20;;;2.60;99.90;;;;;;5002147;28;20054;-60
2022/12/27 00:32:37;;;;;;;10.80;1.23;;;2.70;99.90;;;;;;4988494;28;20502;-59
2022/12/27 00:35:12;;;;;;;6.88;0.60;;;2.60;99.90;;;;;;4997896;28;20061;-59
2022/12/27 00:37:40;;;;;;;3.67;0.60;;;2.70;99.90;;;;;;4991046;28;20058;-59
2022/12/27 00:40:09;;;;;;;5.30;0.40;;;2.70;99.90;;;;;;4996909;28;20053;-60
2022/12/27 00:42:37;;;;;;;7.93;1.02;;;;;;;;;;4985069;28;20058;-60
2022/12/27 00:45:06;;;;;;;4.05;0.70;;;2.80;99.90;;;;;;4987978;28;20058;-60
2022/12/27 00:47:33;;;;;;;13.52;1.48;;;2.80;99.90;;;;;;4988886;28;20046;-59
2022/12/27 00:50:01;;;;;;;3.33;0.60;;;2.90;99.90;;;;;;5007085;28;20053;-60
2022/12/27 00:52:29;;;;;;;5.30;0.80;;;3.00;99.90;;;;;;4990777;28;20043;-60
2022/12/27 00:54:57;;;;;;;4.72;0.60;;;3.00;99.90;;;;;;4996395;28;20065;-59
2022/12/27 00:57:24;;;;;;;8.88;1.08;;;3.10;99.90;;;;;;4990291;28;20053;-61
2022/12/27 00:59:52;;;;;;;7.38;0.70;;;3.10;99.90;;;;;;4991033;28;20069;-59
2022/12/27 01:02:20;;;;;;;3.58;0.73;;;3.20;99.90;;;;;;4989322;28;20042;-60
2022/12/27 01:04:48;;;;;;;6.47;0.90;;;3.20;99.90;;;;;;4997842;28;20049;-60
2022/12/27 01:07:15;;;;;;;0.85;0.32;;;3.20;99.90;;;;;;4989487;28;20589;-60
2022/12/27 01:09:43;;;;;;;9.32;1.10;;;3.20;99.90;;;;;;4999833;28;20061;-59
2022/12/27 01:12:11;;;;;;;2.33;0.50;;;3.20;99.90;;;;;;4998861;28;20049;-59
2022/12/27 01:14:39;;;;;;;2.45;0.52;;;3.20;99.90;;;;;;4988935;28;20058;-60
2022/12/27 01:17:06;;;;;;;15.57;1.42;;;3.30;99.90;;;;;;4989735;28;20061;-63
2022/12/27 01:19:35;;;;;;;4.78;0.82;;;3.30;99.90;;;;;;4989720;28;20405;-62
2022/12/27 01:22:07;;;;;;;2.63;0.73;;;3.20;99.90;;;;;;4990731;28;20043;-60
2022/12/27 01:24:35;;;;;;;7.97;1.85;;;3.30;99.90;;;;;;4987586;28;20042;-60
2022/12/27 01:27:02;;;;;;;5.20;0.77;;;3.20;99.90;;;;;;4985646;28;20240;-60
2022/12/27 01:29:31;;;;;;;3.60;0.70;;;3.10;99.90;;;;;;4987315;28;20081;-60
2022/12/27 01:31:58;;;;;;;1.60;0.52;;;3.10;99.90;;;;;;4985165;28;20057;-62
2022/12/27 01:34:26;;;;;;;18.10;2.00;;;3.00;99.90;;;;;;4987290;28;20427;-61
2022/12/27 01:36:54;;;;;;;11.25;0.68;;;3.00;99.90;;;;;;4986072;28;20046;-63
2022/12/27 01:39:22;;;;;;;6.03;0.85;;;2.90;99.90;;;;;;4987291;28;20038;-63
2022/12/27 01:44:52;;;;;;;7.75;1.10;;;2.70;99.90;;;;;;4982574;28;20049;-62
2022/12/27 01:48:03;;;;;;;5.40;0.82;;;2.60;99.90;;;;;;4988024;28;20038;-61
2022/12/27 01:50:44;;;;;;;4.63;0.70;;;2.50;99.90;;;;;;4981905;28;20054;-59
2022/12/27 01:53:22;;;;;;;6.38;1.00;;;2.40;99.90;;;;;;4989598;28;20038;-60
2022/12/27 01:56:02;;;;;;;2.20;0.73;;;2.20;99.90;;;;;;4989334;28;20057;-60
2022/12/27 01:58:36;;;;;;;5.43;1.42;;;2.00;99.90;;;;;;4979691;28;20042;-61
2022/12/27 02:01:07;;;;;;;4.45;0.80;;;2.00;99.90;;;;;;4988543;28;20053;-63
2022/12/27 02:03:40;;;;;;;7.05;1.25;;;1.90;99.90;;;;;;4989784;28;20061;-61
2022/12/27 02:06:10;;;;;;;6.72;0.68;;;1.80;99.90;;;;;;4988479;28;20054;-61
2022/12/27 02:08:42;;;;;;;9.00;0.82;;;1.80;99.90;;;;;;4998883;28;20053;-63
2022/12/27 02:11:16;;;;;;;2.92;0.60;;;1.70;99.90;;;;;;5006128;28;20397;-62
2022/12/27 02:13:45;;;;;;;3.90;0.50;;;1.60;99.90;;;;;;5009088;28;20397;-63
2022/12/27 02:16:18;;;;;;;3.90;0.57;;;1.60;99.90;;;;;;4990116;28;20061;-62
2022/12/27 02:18:51;;;;;;;2.75;0.50;;;1.50;99.90;;;;;;4988805;28;20053;-62
2022/12/27 02:21:37;;;;;;;2.45;0.80;;;1.50;99.90;;;;;;4989439;28;20061;-60
2022/12/27 02:24:43;;;;;;;2.55;0.80;;;1.50;99.90;;;;;;4985727;28;20044;-62
2022/12/27 02:27:40;;;;;;;5.03;0.82;;;1.50;99.90;;;;;;4984063;28;20402;-62
2022/12/27 02:30:11;;;;;;;11.27;1.02;;;1.50;99.90;;;;;;4982184;28;20046;-59
2022/12/27 02:33:04;;;;;;;4.28;1.70;;;1.50;99.90;;;;;;4985792;28;20042;-59
2022/12/27 02:35:34;;;;;;;5.53;0.60;;;1.50;99.90;;;;;;4988643;28;20065;-58
2022/12/27 02:38:13;;;;;;;1.92;0.65;;;1.40;99.90;;;;;;4990061;28;20053;-58
2022/12/27 02:55:34;;;;;;;6.30;0.82;;;1.40;99.90;;;;;;4987918;28;20058;-60
2022/12/27 02:58:02;;;;;;;;;;;1.40;99.90;;;;;;4986901;28;20051;-59
2022/12/27 03:03:46;;;;;;;3.08;0.80;;;1.20;99.90;;;;;;4985293;28;20046;-60
2022/12/27 03:15:53;;;;;;;7.15;1.52;;;1.20;99.90;;;;;;4984950;28;20042;-61
2022/12/27 03:18:08;;;;;;;6.25;1.73;;;1.00;99.90;;;;;;4985642;28;20049;-63
2022/12/27 03:26:13;;;;;;;7.75;1.52;;;0.80;99.90;;;;;;4985486;28;20042;-62
2022/12/27 03:34:34;;;;;;;5.65;1.50;;;0.70;99.90;;;;;;4988572;28;20039;-61
2022/12/27 03:39:58;;;;;;;6.50;1.35;;;0.60;99.90;;;;;;4989334;28;20043;-62
2022/12/27 03:45:15;;;;;;;4.97;1.52;;;0.50;99.90;;;;;;4986965;28;20041;-60
2022/12/27 03:48:00;;;;;;;9.18;1.48;;;0.40;99.90;;;;;;4987879;28;20062;-61
2022/12/27 03:50:35;;;;;;;5.70;1.40;;;0.40;99.90;;;;;;4989579;28;20402;-61
2022/12/27 03:53:11;;;;;;;5.53;1.30;;;0.30;99.90;;;;;;4991058;28;20051;-59
2022/12/27 03:55:39;;;;;;;3.95;1.40;;;0.30;99.90;;;;;;4987782;28;20054;-61
2022/12/27 03:58:06;;;;;;;3.85;1.50;;;0.30;99.90;;;;;;4989300;28;20053;-60
2022/12/27 04:00:34;;;;;;;6.03;1.48;;;0.20;99.90;;;;;;4987358;28;20046;-63
2022/12/27 04:03:03;;;;;;;4.40;1.20;;;0.20;99.90;;;;;;4986501;28;20057;-58
2022/12/27 04:05:31;;;;;;;4.67;1.83;;;0.20;99.90;;;;;;4986899;28;20061;-60
2022/12/27 04:35:45;;;;;;;5.63;2.90;;;0.10;99.90;;;;;;4988995;28;20054;-60
2022/12/27 04:38:13;;;;;;;9.73;2.38;;;0.10;99.90;;;;;;4991720;28;20046;-64
2022/12/27 04:55:07;;;;;;;7.53;2.53;;;0.30;99.90;;;;;;4989756;28;20379;-63
2022/12/27 04:57:35;;;;;;;9.60;2.42;;;0.30;99.90;;;;;;4992139;28;20414;-63
2022/12/27 05:02:50;;;;;;;6.38;1.50;;;0.30;99.90;;;;;;4990792;28;20038;-63
2022/12/27 05:05:19;;;;;;;6.20;2.22;;;0.40;99.90;;;;;;4990957;28;20042;-63
2022/12/27 05:16:06;;;;;;;10.73;2.42;;;0.40;99.90;;;;;;4990971;28;20409;-61
2022/12/27 05:18:34;;;;;;;9.45;2.28;;;0.40;99.90;;;;;;5005163;28;20046;-62
2022/12/27 05:21:04;;;;;;;3.30;1.75;;;0.30;99.90;;;;;;4990213;28;20390;-59
2022/12/27 05:26:30;;;;;;;5.82;1.75;;;0.40;99.90;;;;;;4990808;28;20053;-60
2022/12/27 05:28:59;;;;;;;6.07;2.10;;;0.40;99.90;;;;;;4990146;28;20545;-60
2022/12/27 05:31:28;;;;;;;7.50;2.20;;;0.40;99.90;;;;;;4989387;28;20050;-59
2022/12/27 05:33:56;;;;;;;8.35;2.13;;;0.40;99.90;;;;;;4989129;28;20053;-60
2022/12/27 05:36:24;;;;;;;5.80;2.33;;;0.40;99.90;;;;;;5006303;28;20767;-60
2022/12/27 05:38:52;;;;;;;7.65;2.58;;;0.50;99.90;;;;;;4991109;28;20049;-61
2022/12/27 05:41:19;;;;;;;4.55;2.25;;;0.50;99.90;;;;;;4990646;28;20050;-60
2022/12/27 05:43:48;;;;;;;6.75;2.67;;;0.60;99.90;;;;;;4990667;28;20042;-59
2022/12/27 05:46:18;;;;;;;6.35;3.47;;;0.60;99.90;;;;;;4993166;28;20050;-59
2022/12/27 05:48:46;;;;;;;8.57;2.60;;;0.60;99.90;;;;;;4983062;28;20065;-59
2022/12/27 05:51:19;;;;;;;6.45;2.05;;;0.70;99.90;;;;;;4986313;28;20046;-61
2022/12/27 05:53:47;;;;;;;5.90;2.20;;;0.70;99.90;;;;;;4987092;28;20057;-58
2022/12/27 05:56:18;;;;;;;6.00;2.15;;;0.70;99.90;;;;;;4990035;28;20054;-59
2022/12/27 05:58:46;;;;;;;11.48;2.20;;;0.80;99.90;;;;;;4987112;28;20061;-59
2022/12/27 06:01:16;;;;;;;4.93;2.10;;;0.80;99.90;;;;;;4987227;28;20042;-60
2022/12/27 06:03:45;;;;;;;11.07;3.22;;;0.80;99.90;;;;;;4978564;28;20062;-59
2022/12/27 06:06:13;;;;;;;13.02;2.42;;;0.90;99.90;;;;;;4981933;28;20039;-59
2022/12/27 06:08:40;;;;;;;5.78;2.05;;;0.90;99.90;;;;;;4985375;28;20057;-61
2022/12/27 06:11:11;;;;;;;4.65;1.60;;;0.90;99.90;;;;;;4988826;28;20050;-59
2022/12/27 06:13:39;;;;;;;4.88;2.33;;;1.00;99.90;;;;;;4985949;28;20050;-59
2022/12/27 06:16:09;;;;;;;15.35;2.28;;;1.00;99.90;;;;;;4976941;28;20414;-58
2022/12/27 06:18:38;;;;;;;;;;;1.00;99.90;;;;;;4983000;28;20073;-60
2022/12/27 06:21:14;;;;;;;7.18;2.40;;;1.00;99.90;;;;;;4984062;28;19926;-63
2022/12/27 06:23:44;;;;;;;12.63;1.77;;;1.00;99.90;;;;;;4989410;28;20049;-62
2022/12/27 06:26:23;;;;;;;4.05;1.13;;;1.00;99.90;;;;;;4980500;28;20035;-61
2022/12/27 06:28:55;;;;;;;7.68;1.88;;;1.10;99.90;;;;;;4984977;28;20061;-61
2022/12/27 06:31:23;;;;;;;;;;;1.10;99.90;;;;;;4984607;28;20061;-62
2022/12/27 06:34:00;;;;;;;6.43;1.42;;;1.20;99.90;;;;;;4982635;28;19921;-60
2022/12/27 06:36:31;;;;;;;5.43;1.88;;;1.20;99.90;;;;;;4981914;28;20050;-64
2022/12/27 06:38:59;;;;;;;5.80;1.75;;;1.30;99.90;;;;;;4985517;28;20061;-60
2022/12/27 06:41:27;;;;;;;4.55;2.53;;;1.30;99.90;;;;;;4986730;28;20647;-63
2022/12/27 06:43:56;;;;;;;8.73;2.25;;;1.40;99.90;;;;;;4982092;28;20058;-60
2022/12/27 06:46:24;;;;;;;7.35;1.55;;;1.30;99.90;;;;;;4977898;28;20049;-60
2022/12/27 06:48:52;;;;;;;8.10;2.15;;;1.50;99.90;;;;;;4984880;28;20057;-62
2022/12/27 06:51:20;;;;;;;4.30;1.38;;;1.40;99.90;;;;;;4984393;28;20414;-60
2022/12/27 06:53:49;;;;;;;15.00;2.00;;;1.50;99.90;;;;;;4981928;28;20053;-60
2022/12/27 06:56:21;;;;;;;7.13;1.38;;;1.50;99.90;;;;;;4985024;28;20039;-62
2022/12/27 06:58:50;;;;;;;;;;;1.50;99.90;;;;;;4988380;28;20425;-63
2022/12/27 07:01:21;;;;;;;9.43;1.08;;;1.60;99.90;;;;;;4984047;28;19937;-60
2022/12/27 07:03:56;;;;;;;4.70;1.10;;;1.60;99.90;;;;;;4980205;28;20050;-61
2022/12/27 07:06:28;;;;;;;8.27;1.40;;;1.60;99.90;;;;;;4981736;28;20038;-63
2022/12/27 07:08:58;;;;;;;9.70;1.83;;;1.70;99.90;;;;;;4982889;28;20053;-62
2022/12/27 07:11:26;;;;;;;9.40;2.28;;;1.70;99.90;;;;;;4984793;28;20062;-59
2022/12/27 07:13:55;;;;;;;6.78;2.05;;;1.70;99.90;;;;;;4981023;28;20066;-61
2022/12/27 07:16:25;;;;;;;4.25;1.70;;;1.70;99.90;;;;;;4980622;28;20047;-61
2022/12/27 07:18:59;;;;;;;4.25;1.10;;;1.80;99.90;;;;;;4983096;28;20046;-63
2022/12/27 07:21:28;;;;;;;4.28;1.13;;;1.80;99.90;;;;;;4981491;28;20049;-63
2022/12/27 07:23:56;;;;;;;8.60;1.50;;;1.80;99.90;;;;;;4981598;28;20042;-62
2022/12/27 07:26:28;;;;;;;5.43;1.40;;;1.80;99.90;;;;;;4981977;28;20046;-63
2022/12/27 07:28:59;;;;;;;11.05;1.67;;;1.80;99.90;;;;;;4983313;28;20042;-59
2022/12/27 07:31:30;;;;;;;8.32;1.05;;;1.90;99.90;;;;;;4980833;28;20054;-61
2022/12/27 07:34:00;;;;;;;4.80;1.08;;;1.90;99.90;;;;;;4984755;28;20042;-59
2022/12/27 07:36:34;;;;;;;6.45;1.27;;;1.90;99.90;;;;;;4979902;28;20042;-63
2022/12/27 07:39:03;;;;;;;4.70;1.50;;;1.90;99.90;;;;;;4982465;28;20478;-59
2022/12/27 07:41:34;;;;;;;4.30;1.55;;;1.90;99.90;;;;;;4978068;28;20513;-61
2022/12/27 07:44:03;;;;;;;5.25;1.77;;;1.90;99.90;;;;;;4982757;28;20039;-60
2022/12/27 07:46:31;;;;;;;10.32;2.53;;;2.00;99.90;;;;;;4984032;28;20046;-59
2022/12/27 07:48:59;;;;;;;6.35;1.38;;;2.00;99.90;;;;;;4986467;28;20051;-61
2022/12/27 07:51:28;;;;;;;3.15;1.30;;;2.10;99.90;;;;;;4983066;28;20529;-59
2022/12/27 07:53:56;;;;;;;7.35;1.02;;;2.10;99.90;;;;;;4983775;28;20047;-62
2022/12/27 07:56:26;;;;;;;2.38;1.17;;;2.20;99.90;;;;;;4983073;28;20050;-59
2022/12/27 07:58:56;;;;;;;5.82;1.38;;;2.20;99.90;;;;;;4984573;28;20050;-59
2022/12/27 08:01:27;;;;;;;3.63;0.95;;;2.30;99.90;;;;;;4983938;28;20050;-59
2022/12/27 08:03:55;;;;;;;8.40;1.67;;;2.50;99.90;;;;;;5016269;28;20062;-59
2022/12/27 08:06:32;;;;;;;7.47;1.80;;;2.40;99.90;;;;;;4986200;28;20046;-59
2022/12/27 08:09:08;;;;;;;9.95;1.60;;;2.60;99.90;;;;;;4985424;28;20047;-59
2022/12/27 08:11:36;;;;;;;9.70;3.90;;;2.70;99.90;;;;;;4982497;28;20045;-61
2022/12/27 08:14:03;;;;;;;8.63;2.13;;;2.70;99.90;;;;;;4984821;28;20058;-61
2022/12/27 08:16:32;;;;;;;9.38;2.22;;;2.80;99.90;;;;;;4985646;28;20053;-61
2022/12/27 08:19:02;;;;;;;7.63;2.67;;;2.80;99.90;;;;;;4984017;28;20054;-62
2022/12/27 08:21:35;;;;;;;11.77;2.10;;;2.90;99.90;;;;;;4984849;28;20057;-63
2022/12/27 08:24:03;;;;;;;9.13;2.30;;;3.00;99.90;;;;;;4984225;28;20061;-60
2022/12/27 08:26:31;;;;;;;9.52;2.60;;;3.00;99.90;;;;;;4985230;28;20057;-60
2022/12/27 08:28:59;;;;;;;12.52;3.08;;;3.10;99.90;;;;;;4989957;28;20066;-62
2022/12/27 08:31:29;;;;;;;7.57;2.80;;;3.00;99.90;;;;;;4983773;28;20058;-63
2022/12/27 08:33:57;;;;;;;6.32;2.92;;;3.10;99.90;;;;;;5001933;28;20034;-61
2022/12/27 08:36:25;;;;;;;8.02;3.97;;;3.70;99.90;;;;;;4985090;28;20054;-62
2022/12/27 08:39:13;;;;;;;11.02;4.20;;;3.10;99.90;;;;;;4982962;28;20042;-60
2022/12/27 08:41:41;;;;;;;9.57;4.65;;;3.20;99.90;;;;;;4984837;28;20053;-62
2022/12/27 08:44:09;;;;;;;19.77;4.50;;;3.20;99.90;;;;;;4980893;28;20054;-61
2022/12/27 08:46:36;;;;;;;12.15;4.25;;;3.20;99.90;;;;;;4983151;28;20485;-62
2022/12/27 08:49:08;;;;;;;12.43;4.70;;;3.20;99.90;;;;;;4984262;28;20543;-63
2022/12/27 08:51:35;;;;;;;14.77;4.82;;;3.20;99.90;;;;;;4987934;28;20062;-61
2022/12/27 08:54:08;;;;;;;10.82;4.25;;;3.30;99.90;;;;;;4994095;28;20057;-61
2022/12/27 08:56:36;;;;;;;14.93;4.78;;;3.30;99.90;;;;;;4978647;28;20057;-61
2022/12/27 08:59:04;;;;;;;12.98;4.25;;;3.40;99.90;;;;;;4984273;28;20072;-60
2022/12/27 09:01:32;;;;;;;7.60;4.07;;;3.30;99.90;;;;;;4984721;28;20058;-60
2022/12/27 09:03:59;;;;;;;9.23;4.70;;;3.40;99.90;;;;;;5014383;28;20483;-60
2022/12/27 09:06:27;;;;;;;12.25;4.30;;;3.40;99.90;;;;;;4987017;28;20389;-60
2022/12/27 09:08:55;;;;;;;12.98;4.93;;;3.40;99.90;;;;;;4987513;28;20460;-60
2022/12/27 09:11:25;;;;;;;11.25;5.18;;;3.50;99.90;;;;;;4983151;28;20042;-60
2022/12/27 09:13:54;;;;;;;9.85;4.13;;;3.50;99.90;;;;;;4986101;28;20043;-59
2022/12/27 09:16:23;;;;;;;7.35;3.40;;;3.60;99.90;;;;;;4985509;28;20053;-62
2022/12/27 09:18:53;;;;;;;13.05;4.80;;;3.50;99.90;;;;;;4985553;28;20043;-59
2022/12/27 09:21:22;;;;;;;9.68;3.25;;;3.50;99.90;;;;;;4983442;28;20038;-60
2022/12/27 09:23:50;;;;;;;12.82;4.35;;;3.50;99.90;;;;;;4984755;28;20627;-59
2022/12/27 09:26:25;;;;;;;9.43;4.05;;;3.40;99.90;;;;;;4986845;28;20050;-60
2022/12/27 09:28:53;;;;;;;10.55;5.38;;;3.40;99.90;;;;;;4980786;28;20412;-60
2022/12/27 09:31:21;;;;;;;12.77;6.22;;;3.40;99.90;;;;;;4981689;28;20061;-60
2022/12/27 09:33:50;;;;;;;9.30;4.47;;;3.40;99.90;;;;;;4990702;28;20050;-60
2022/12/27 09:36:20;;;;;;;18.02;6.40;;;3.60;99.90;;;;;;4990060;28;20054;-60
2022/12/27 09:38:50;;;;;;;12.45;5.53;;;3.60;99.90;;;;;;4983588;28;20050;-60
2022/12/27 09:41:36;;;;;;;13.25;5.60;;;3.70;99.90;;;;;;5023871;28;20057;-59
2022/12/27 09:44:37;;;;;;;9.60;4.38;;;3.70;99.90;;;;;;5005885;28;20057;-62
2022/12/27 09:47:26;;;;;;;10.75;4.80;;;3.80;99.90;;;;;;4993094;28;20045;-63
2022/12/27 09:49:59;;;;;;;12.98;5.35;;;3.80;99.90;;;;;;4990624;28;20383;-62
2022/12/27 09:52:33;;;;;;;10.02;4.78;;;3.90;99.90;;;;;;4991330;28;20058;-60
2022/12/27 09:55:05;;;;;;;10.60;5.25;;;4.00;99.90;;;;;;4990566;28;20061;-62
2022/12/27 09:57:40;;;;;;;15.40;6.18;;;4.00;99.90;;;;;;4989748;28;20046;-61
2022/12/27 10:00:24;;;;;;;11.10;5.22;;;3.90;99.90;;;;;;4989386;28;20050;-62
2022/12/27 10:03:04;;;;;;;16.30;6.32;;;4.00;99.90;;;;;;4992374;28;20054;-60
2022/12/27 10:05:35;;;;;;;20.30;5.35;;;4.00;99.90;;;;;;4991026;28;20050;-62
2022/12/27 10:08:18;;;;;;;16.23;5.55;;;4.00;99.90;;;;;;4988869;28;20054;-61
2022/12/27 10:11:07;;;;;;;13.68;5.35;;;4.00;99.90;;;;;;4987731;28;20042;-61
2022/12/27 10:13:34;;;;;;;15.13;5.85;;;4.10;99.90;;;;;;4979708;28;20053;-60
2022/12/27 10:16:09;;;;;;;14.50;5.10;;;4.10;99.90;;;;;;4988277;28;20066;-59
2022/12/27 10:19:04;;;;;;;13.32;5.00;;;4.20;99.90;;;;;;4983951;28;20070;-61
2022/12/27 10:21:38;;;;;;;12.13;5.47;;;4.20;99.90;;;;;;4986782;28;20409;-60
2022/12/27 10:24:39;;;;;;;13.15;4.95;;;4.30;99.90;;;;;;4984892;28;20054;-60
2022/12/27 10:27:19;;;;;;;17.05;5.63;;;4.30;99.90;;;;;;4983521;28;20057;-61
2022/12/27 10:29:50;;;;;;;11.73;5.05;;;4.30;99.90;;;;;;4974549;28;20058;-60
2022/12/27 10:32:18;;;;;;;9.00;4.18;;;4.40;99.90;;;;;;4986428;28;20045;-60
2022/12/27 10:34:56;;;;;;;15.32;5.10;;;4.30;99.90;;;;;;4984962;28;20251;-60
2022/12/27 10:37:24;;;;;;;16.02;5.65;;;4.40;99.90;;;;;;4990506;28;20046;-59
2022/12/27 10:39:52;;;;;;;10.82;4.28;;;4.50;99.90;;;;;;4981632;28;20513;-60
2022/12/27 10:42:30;;;;;;;9.27;3.40;;;4.50;99.90;;;;;;4986082;28;20061;-61
2022/12/27 10:45:31;;;;;;;12.53;4.70;;;4.50;99.90;;;;;;4984255;28;20057;-60
2022/12/27 10:48:13;;;;;;;8.07;3.28;;;4.60;99.90;;;;;;4976733;28;20846;-59
2022/12/27 10:51:08;;;;;;;17.65;3.00;;;4.60;99.90;;;;;;4982633;28;20915;-60
2022/12/27 10:53:40;;;;;;;12.70;2.88;;;4.70;99.90;;;;;;4982534;28;20054;-61
2022/12/27 10:56:33;;;;;;;13.30;3.33;;;4.70;99.90;;;;;;4985060;28;20057;-61
2022/12/27 10:59:24;;;;;;;14.23;4.00;;;4.80;99.90;;;;;;4995181;28;20049;-61
2022/12/27 11:02:01;;;;;;;10.30;3.25;;;4.80;99.90;;;;;;4975629;28;20089;-60
2022/12/27 11:04:30;;;;;;;11.60;3.50;;;4.80;99.90;;;;;;4971985;28;20051;-61
2022/12/27 11:07:03;;;;;;;6.55;3.10;;;5.50;99.90;;;;;;4983906;28;20050;-60
2022/12/27 11:09:39;;;;;;;8.45;3.58;;;4.90;99.90;;;;;;4986361;28;20038;-59
2022/12/27 11:12:22;;;;;;;10.07;2.92;;;4.90;99.90;;;;;;5000912;28;20054;-61
2022/12/27 11:14:54;;;;;;;11.40;2.90;;;4.90;99.90;;;;;;4988863;28;20046;-59
2022/12/27 11:17:35;;;;;;;13.35;2.30;;;5.00;99.90;;;;;;4988572;28;20061;-60
2022/12/27 11:20:32;;;;;;;9.13;2.80;;;5.00;99.90;;;;;;4988268;28;20148;-60
2022/12/27 11:23:08;;;;;;;9.35;2.20;;;5.10;99.90;;;;;;4984382;28;20049;-60
2022/12/27 11:25:51;;;;;;;8.15;2.17;;;5.10;99.90;;;;;;5002601;28;20054;-60
2022/12/27 11:28:25;;;;;;;13.18;2.90;;;5.20;99.90;;;;;;4997000;28;20045;-60
2022/12/27 11:31:02;;;;;;;5.13;1.35;;;5.20;99.90;;;;;;4994067;28;20062;-60
2022/12/27 11:33:38;;;;;;;15.65;2.58;;;5.30;99.90;;;;;;4986280;28;20046;-60
2022/12/27 11:36:08;;;;;;;6.10;1.75;;;5.30;99.90;;;;;;4986933;28;20042;-60
2022/12/27 11:38:38;;;;;;;7.22;1.48;;;5.40;99.90;;;;;;4985991;28;20046;-59
2022/12/27 11:41:41;;;;;;;11.00;2.47;;;5.40;99.90;;;;;;4990457;28;20057;-60
2022/12/27 11:44:25;;;;;;;8.50;2.10;;;5.50;99.90;;;;;;4976467;28;20042;-61
2022/12/27 11:47:14;;;;;;;10.75;1.60;;;5.50;99.90;;;;;;4987158;28;20050;-61
2022/12/27 11:49:50;;;;;;;11.37;2.00;;;5.60;99.90;;;;;;4968251;28;20529;-61
2022/12/27 11:52:57;;;;;;;10.35;2.45;;;5.60;99.90;;;;;;4982620;28;20046;-60
2022/12/27 11:55:46;;;;;;;8.85;1.17;;;5.70;99.90;;;;;;4981137;28;20038;-62
2022/12/27 11:58:42;;;;;;;11.48;1.92;;;5.90;99.90;;;;;;4982642;28;20054;-60
2022/12/27 12:01:35;;;;;;;8.88;1.15;;;5.80;99.90;;;;;;4983124;28;20058;-59
2022/12/27 12:04:21;;;;;;;7.13;1.60;;;5.90;99.90;;;;;;4979278;28;20038;-58
2022/12/27 12:07:04;;;;;;;11.05;2.95;;;5.90;99.90;;;;;;4983038;28;20087;-60
2022/12/27 12:09:45;;;;;;;9.55;1.52;;;6.00;99.90;;;;;;4984249;28;20065;-61
2022/12/27 12:12:16;;;;;;;9.02;2.03;;;6.00;99.90;;;;;;4982799;28;20050;-60
2022/12/27 12:15:01;;;;;;;7.13;1.65;;;6.10;99.90;;;;;;4982978;28;20050;-61
2022/12/27 12:18:16;;;;;;;4.13;1.52;;;6.10;99.90;;;;;;4978740;28;20046;-60
2022/12/27 12:20:53;;;;;;;13.52;2.28;;;6.20;99.90;;;;;;4977213;28;20061;-64
2022/12/27 12:23:50;;;;;;;5.13;1.30;;;6.20;99.90;;;;;;4989944;28;20046;-65
2022/12/27 12:26:24;;;;;;;12.70;1.52;;;6.20;99.90;;;;;;4978540;28;20058;-61
2022/12/27 12:29:33;;;;;;;4.43;1.30;;;6.30;99.90;;;;;;4975584;28;20046;-65
2022/12/27 12:32:27;;;;;;;6.53;1.67;;;6.30;99.90;;;;;;4969405;28;20045;-64
2022/12/27 12:35:39;;;;;;;11.02;3.13;;;6.30;99.90;;;;;;4982449;28;20654;-61
2022/12/27 12:38:15;;;;;;;11.82;1.60;;;6.40;99.90;;;;;;4959967;28;20070;-65
2022/12/27 12:41:04;;;;;;;7.43;1.33;;;6.40;99.90;;;;;;4992579;28;20047;-65
2022/12/27 12:44:16;;;;;;;12.15;1.52;;;6.40;99.90;;;;;;4983990;28;20608;-61
2022/12/27 12:47:08;;;;;;;6.50;1.10;;;6.50;99.90;;;;;;4974514;28;21297;-63
2022/12/27 12:50:22;;;;;;;9.90;1.60;;;6.50;99.90;;;;;;4981951;28;20047;-60
2022/12/27 12:52:59;;;;;;;4.28;0.90;;;6.60;99.90;;;;;;4985469;28;20054;-60
2022/12/27 12:55:39;;;;;;;6.18;1.27;;;6.60;99.90;;;;;;4984422;28;20057;-61
2022/12/27 12:58:22;;;;;;;3.83;1.42;;;6.70;99.90;;;;;;4985673;28;20405;-60
2022/12/27 13:01:22;;;;;;;5.70;1.10;;;6.80;99.90;;;;;;4985746;28;20042;-60
2022/12/27 13:04:21;;;;;;;10.13;1.50;;;6.90;99.90;;;;;;4985317;28;20046;-60
2022/12/27 13:07:02;;;;;;;3.20;1.30;;;6.90;99.90;;;;;;4984052;28;20058;-60
2022/12/27 13:09:49;;;;;;;9.20;1.55;;;7.00;99.90;;;;;;4997371;28;20043;-61
2022/12/27 13:12:41;;;;;;;16.95;2.47;;;7.10;99.90;;;;;;4980560;28;20042;-59
2022/12/27 13:15:23;;;;;;;6.05;1.50;;;7.10;99.90;;;;;;4968471;28;20051;-60
2022/12/27 13:18:09;;;;;;;6.38;1.20;;;7.20;99.90;;;;;;4975944;28;20042;-61
2022/12/27 13:20:48;;;;;;;14.43;1.75;;;7.30;99.90;;;;;;4987063;28;20046;-58
2022/12/27 13:23:47;;;;;;;14.52;2.20;;;7.30;99.90;;;;;;4977650;28;20702;-59
2022/12/27 13:26:23;;;;;;;3.65;1.17;;;7.40;99.90;;;;;;4983270;28;20461;-60
2022/12/27 13:29:24;;;;;;;5.30;1.33;;;7.40;99.90;;;;;;4982907;28;20342;-60
2022/12/27 13:31:56;;;;;;;2.72;1.00;;;7.40;99.90;;;;;;4969268;28;20050;-62
2022/12/27 13:34:52;;;;;;;2.97;1.15;;;7.40;99.90;;;;;;4986261;28;20054;-59
2022/12/27 13:37:53;;;;;;;2.45;1.13;;;7.40;99.90;;;;;;4976592;28;20065;-59
2022/12/27 13:40:40;;;;;;;3.08;0.50;;;7.40;99.90;;;;;;5009943;28;20267;-58
2022/12/27 13:43:26;;;;;;;3.38;0.57;;;7.40;99.90;;;;;;4993302;28;20047;-60
2022/12/27 13:46:13;;;;;;;3.63;0.70;;;7.40;99.90;;;;;;5013466;28;20367;-62
2022/12/27 13:48:59;;;;;;;6.22;1.10;;;7.50;99.90;;;;;;4985995;28;20061;-59
2022/12/27 13:51:42;;;;;;;4.00;1.17;;;7.50;99.90;;;;;;4983403;28;20058;-59
2022/12/27 13:54:43;;;;;;;5.90;1.65;;;7.50;99.90;;;;;;4982006;28;20042;-59
2022/12/27 13:57:43;;;;;;;6.13;2.97;;;7.50;99.90;;;;;;4981488;28;20049;-59
2022/12/27 14:00:19;;;;;;;3.47;1.95;;;7.50;99.90;;;;;;4985490;28;20049;-59
2022/12/27 14:03:15;;;;;;;4.80;1.00;;;7.50;99.90;;;;;;4998532;28;20054;-58
2022/12/27 14:06:11;;;;;;;4.38;1.42;;;7.60;99.90;;;;;;4979329;28;20050;-58
2022/12/27 14:09:05;;;;;;;8.18;1.88;;;7.60;99.90;;;;;;4982617;28;20053;-58
2022/12/27 14:11:42;;;;;;;3.30;0.93;;;7.60;99.90;;;;;;4982510;28;20050;-59
2022/12/27 14:14:15;;;;;;;1.83;0.70;;;7.60;99.90;;;;;;4989339;28;20045;-58
2022/12/27 14:16:48;;;;;;;7.28;0.88;;;7.70;99.90;;;;;;4982751;28;20050;-58
2022/12/27 14:19:57;;;;;;;7.63;1.23;;;7.60;99.90;;;;;;4982233;28;20409;-58
2022/12/27 14:22:36;;;;;;;6.65;1.00;;;7.70;99.90;;;;;;4984505;28;20041;-60
2022/12/27 14:25:24;;;;;;;26.67;11.10;;;7.70;99.90;;;;;;4985577;28;20405;-61
2022/12/27 14:28:17;;;;;;;5.60;1.48;;;7.70;99.90;;;;;;4983514;28;20486;-58
2022/12/27 14:31:15;;;;;;;5.65;2.72;;;7.70;99.90;;;;;;4981015;28;20134;-59
2022/12/27 14:34:07;;;;;;;3.00;1.27;;;7.70;99.90;;;;;;4981998;28;20051;-59
2022/12/27 14:37:06;;;;;;;8.60;3.53;;;7.70;99.90;;;;;;4978282;28;20043;-58
2022/12/27 14:40:04;;;;;;;6.93;1.85;;;7.70;99.90;;;;;;4983321;28;20042;-58
2022/12/27 14:43:07;;;;;;;6.03;1.17;;;7.70;99.90;;;;;;4981608;28;20053;-57
2022/12/27 14:45:57;;;;;;;7.88;1.50;;;7.70;99.90;;;;;;4982200;28;20053;-58
2022/12/27 14:48:59;;;;;;;15.50;1.40;;;7.70;99.90;;;;;;4977596;28;20053;-59
2022/12/27 14:51:52;;;;;;;4.55;1.20;;;7.70;99.90;;;;;;4997839;28;20417;-57
2022/12/27 14:55:13;;;;;;;4.78;1.23;;;7.70;99.90;;;;;;4984585;28;20051;-59
2022/12/27 14:58:16;;;;;;;3.33;1.70;;;7.80;99.90;;;;;;4979078;28;20049;-58
2022/12/27 15:00:56;;;;;;;5.32;1.45;;;7.80;99.90;;;;;;4981358;28;20042;-62
2022/12/27 15:03:56;;;;;;;3.08;1.00;;;7.80;99.90;;;;;;4986760;28;20058;-58
2022/12/27 15:06:45;;;;;;;4.72;1.50;;;7.80;99.90;;;;;;4970309;28;20054;-58
2022/12/27 15:09:18;;;;;;;13.02;1.50;;;7.80;99.90;;;;;;4979103;28;20260;-60
2022/12/27 15:12:28;;;;;;;7.35;2.15;;;7.80;99.90;;;;;;4980948;28;20054;-59
2022/12/27 15:15:01;;;;;;;3.17;0.65;;;7.80;99.90;;;;;;4970963;28;20050;-59
2022/12/27 15:17:50;;;;;;;1.30;1.20;;;7.90;99.90;;;;;;4972698;28;20051;-61
2022/12/27 15:20:33;;;;;;;4.78;1.60;;;7.90;99.90;;;;;;4988179;28;20038;-61
2022/12/27 15:23:04;;;;;;;5.75;1.05;;;7.90;99.90;;;;;;4977262;28;20386;-59
2022/12/27 15:25:53;;;;;;;6.10;0.98;;;7.90;99.90;;;;;;4979769;28;20057;-61
2022/12/27 15:28:55;;;;;;;2.47;0.95;;;7.90;99.90;;;;;;4982130;28;20050;-60